Time;durP1;ratioP1;P1;durP2;ratioP2;P2;SDS_P1;SDS_P2;PMS_P1;PMS_P2;Temp;Humidity;BMP_temperature;BMP_pressure;BME280_temperature;BME280_humidity;BME280_pressure;Samples;Min_cycle;Max_cycle;Signal;HPM_P1;HPM_P2
2022/08/04 00:01:03;;;;;;;2.85;2.65;;;24.60;52.00;;;;;;942175;149;27356;-78
2022/08/04 00:03:29;;;;;;;2.95;2.75;;;24.50;52.00;;;;;;941734;151;27360;-76
2022/08/04 00:06:17;;;;;;;2.52;2.33;;;24.50;52.30;;;;;;937233;152;27345;-75
2022/08/04 00:08:44;;;;;;;2.83;2.62;;;24.50;52.50;;;;;;938165;152;27419;-78
2022/08/04 00:11:11;;;;;;;2.70;2.50;;;24.40;52.50;;;;;;937817;152;27391;-78
2022/08/04 00:13:38;;;;;;;3.40;2.27;;;24.40;52.70;;;;;;937749;152;27294;-78
2022/08/04 00:16:04;;;;;;;2.77;2.58;;;24.40;52.90;;;;;;937817;150;27349;-80
2022/08/04 00:18:33;;;;;;;2.80;2.60;;;24.40;53.00;;;;;;937414;152;27414;-78
2022/08/04 00:21:00;;;;;;;3.12;2.42;;;24.40;53.20;;;;;;937555;152;27314;-77
2022/08/04 00:23:27;;;;;;;2.50;2.30;;;24.30;53.30;;;;;;936993;152;27365;-76
2022/08/04 00:25:53;;;;;;;4.08;3.67;;;24.30;53.40;;;;;;938375;150;27351;-76
2022/08/04 00:28:20;;;;;;;2.60;2.50;;;24.30;53.50;;;;;;938062;150;27434;-78
2022/08/04 00:30:46;;;;;;;4.20;2.92;;;24.30;53.50;;;;;;937520;152;27364;-77
2022/08/04 00:33:13;;;;;;;3.00;2.80;;;24.30;53.70;;;;;;937076;150;27255;-76
2022/08/04 00:35:39;;;;;;;2.40;2.30;;;24.30;53.70;;;;;;936945;150;27484;-76
2022/08/04 00:38:06;;;;;;;2.83;2.40;;;24.30;53.80;;;;;;937138;150;27433;-76
2022/08/04 00:40:32;;;;;;;2.85;2.65;;;24.30;53.90;;;;;;936944;152;27325;-76
2022/08/04 00:43:21;;;;;;;2.70;2.50;;;24.30;54.00;;;;;;937921;152;27483;-75
2022/08/04 00:46:06;;;;;;;2.60;2.40;;;24.30;54.10;;;;;;936937;152;27354;-76
2022/08/04 00:49:00;;;;;;;2.80;2.60;;;24.30;54.20;;;;;;935777;152;27373;-77
2022/08/04 00:52:00;;;;;;;2.95;2.75;;;24.30;54.20;;;;;;935391;152;27866;-76
2022/08/04 00:54:26;;;;;;;2.72;2.52;;;24.30;54.30;;;;;;937772;152;27935;-77
2022/08/04 00:57:02;;;;;;;2.77;2.58;;;24.30;54.20;;;;;;935088;150;27360;-77
2022/08/04 00:59:52;;;;;;;3.00;2.65;;;24.30;54.50;;;;;;937845;152;27342;-77
2022/08/04 01:02:28;;;;;;;2.98;2.77;;;24.20;54.60;;;;;;938236;152;27290;-77
2022/08/04 01:05:07;;;;;;;2.90;2.70;;;24.20;54.50;;;;;;936859;150;27324;-80
2022/08/04 01:07:52;;;;;;;2.92;2.70;;;24.20;54.70;;;;;;923576;150;27458;-77
2022/08/04 01:10:24;;;;;;;3.55;3.08;;;24.20;54.70;;;;;;942413;149;27402;-77
2022/08/04 01:12:54;;;;;;;3.45;3.25;;;24.20;54.80;;;;;;932994;150;27417;-77
2022/08/04 01:15:26;;;;;;;3.35;3.12;;;24.10;55.00;;;;;;942078;150;27309;-77
2022/08/04 01:17:59;;;;;;;2.75;2.50;;;24.10;55.80;;;;;;942537;150;27355;-80
2022/08/04 01:20:25;;;;;;;3.25;3.05;;;24.10;55.30;;;;;;942818;150;27445;-77
2022/08/04 01:23:16;;;;;;;3.10;2.90;;;24.10;55.50;;;;;;943668;150;27281;-76
2022/08/04 01:26:07;;;;;;;3.17;2.95;;;24.00;55.60;;;;;;942834;150;27471;-78
2022/08/04 01:28:52;;;;;;;3.15;2.95;;;24.00;55.60;;;;;;942666;149;27308;-77
2022/08/04 01:31:19;;;;;;;3.27;3.08;;;24.00;55.80;;;;;;941721;149;28561;-78
2022/08/04 01:33:45;;;;;;;3.08;2.87;;;24.00;55.90;;;;;;941042;149;27381;-77
2022/08/04 01:36:12;;;;;;;4.25;3.27;;;23.90;56.10;;;;;;941284;149;28095;-77
2022/08/04 01:38:41;;;;;;;3.30;3.10;;;23.90;56.30;;;;;;942565;149;27336;-77
2022/08/04 01:41:08;;;;;;;3.10;2.90;;;23.80;56.40;;;;;;942380;149;27333;-77
2022/08/04 01:43:34;;;;;;;3.22;3.02;;;23.80;56.60;;;;;;941779;150;27314;-77
2022/08/04 01:46:01;;;;;;;4.42;3.10;;;23.80;56.70;;;;;;942663;150;27351;-77
2022/08/04 01:48:28;;;;;;;3.27;2.98;;;23.80;56.90;;;;;;943379;150;27321;-79
2022/08/04 01:50:57;;;;;;;3.22;3.02;;;23.70;57.00;;;;;;943575;150;27442;-77
2022/08/04 01:53:24;;;;;;;3.22;2.98;;;23.70;57.10;;;;;;942981;149;27365;-77
2022/08/04 01:55:50;;;;;;;3.62;3.10;;;23.70;57.20;;;;;;942030;150;27330;-77
2022/08/04 01:58:19;;;;;;;4.03;3.00;;;23.60;57.30;;;;;;942183;149;27263;-77
2022/08/04 02:00:48;;;;;;;3.77;3.37;;;23.60;57.30;;;;;;943828;150;27372;-77
2022/08/04 02:03:15;;;;;;;3.02;2.83;;;23.60;57.40;;;;;;940991;150;27310;-77
2022/08/04 02:05:42;;;;;;;3.02;2.83;;;23.50;57.30;;;;;;943643;150;27317;-76
2022/08/04 02:08:17;;;;;;;2.83;2.65;;;23.50;57.50;;;;;;943051;149;27650;-76
2022/08/04 02:10:44;;;;;;;3.08;2.85;;;23.40;57.50;;;;;;942504;151;27394;-79
2022/08/04 02:13:10;;;;;;;3.70;2.95;;;23.40;57.60;;;;;;942590;149;27359;-76
2022/08/04 02:15:43;;;;;;;3.27;2.72;;;23.30;57.70;;;;;;941676;149;27344;-76
2022/08/04 02:18:12;;;;;;;3.30;3.10;;;23.30;57.80;;;;;;942005;149;27348;-78
2022/08/04 02:20:38;;;;;;;3.50;3.20;;;23.20;58.00;;;;;;942156;151;27321;-78
2022/08/04 02:23:08;;;;;;;3.10;2.90;;;23.20;58.20;;;;;;942688;151;27441;-77
2022/08/04 02:25:47;;;;;;;3.40;3.10;;;23.10;58.30;;;;;;927589;151;27414;-77
2022/08/04 02:28:29;;;;;;;3.12;2.83;;;23.10;58.50;;;;;;942115;151;27442;-77
2022/08/04 02:31:10;;;;;;;5.15;3.08;;;23.10;58.60;;;;;;942899;151;27335;-77
2022/08/04 02:33:39;;;;;;;3.17;2.98;;;23.00;58.80;;;;;;943680;151;27341;-77
2022/08/04 02:36:06;;;;;;;2.65;2.40;;;23.00;59.00;;;;;;943232;149;27456;-80
2022/08/04 02:38:57;;;;;;;3.02;2.72;;;22.90;59.10;;;;;;943349;149;27434;-78
2022/08/04 02:41:23;;;;;;;3.25;2.98;;;22.90;59.30;;;;;;916489;154;27390;-78
2022/08/04 02:43:50;;;;;;;3.77;3.05;;;22.90;59.30;;;;;;916118;155;27358;-79
2022/08/04 02:46:17;;;;;;;2.67;2.50;;;22.80;60.20;;;;;;936426;151;27312;-78
2022/08/04 02:48:43;;;;;;;2.90;2.70;;;22.80;59.70;;;;;;943397;151;27867;-78
2022/08/04 02:51:10;;;;;;;2.92;2.75;;;22.80;59.80;;;;;;943352;151;27428;-79
2022/08/04 02:53:36;;;;;;;3.00;2.80;;;22.80;59.90;;;;;;943658;149;27304;-79
2022/08/04 02:56:03;;;;;;;3.12;2.92;;;22.80;60.00;;;;;;943799;151;27402;-79
2022/08/04 02:58:29;;;;;;;3.27;3.02;;;22.90;60.10;;;;;;943525;151;27356;-79
2022/08/04 03:00:56;;;;;;;3.10;2.90;;;22.90;60.30;;;;;;943051;151;27360;-79
2022/08/04 03:03:25;;;;;;;3.92;3.62;;;22.90;60.30;;;;;;943557;149;27342;-80
2022/08/04 03:06:10;;;;;;;3.45;3.15;;;22.90;60.40;;;;;;942220;149;27325;-80
2022/08/04 03:08:58;;;;;;;3.70;3.15;;;22.90;60.50;;;;;;937872;152;27419;-80
2022/08/04 03:11:37;;;;;;;3.40;3.10;;;22.90;60.50;;;;;;937132;152;27411;-80
2022/08/04 03:14:12;;;;;;;3.12;2.92;;;22.80;60.50;;;;;;936563;152;27322;-79
2022/08/04 03:17:00;;;;;;;3.67;2.85;;;22.80;61.40;;;;;;937496;152;27307;-79
2022/08/04 03:19:54;;;;;;;3.22;3.00;;;22.80;60.80;;;;;;938646;152;27434;-79
2022/08/04 03:22:32;;;;;;;3.15;2.85;;;22.80;60.80;;;;;;935047;150;27365;-79
2022/08/04 03:25:02;;;;;;;3.87;3.45;;;22.70;60.90;;;;;;936884;150;27421;-79
2022/08/04 03:27:37;;;;;;;4.00;3.70;;;22.70;61.20;;;;;;937020;150;27853;-79
2022/08/04 03:30:03;;;;;;;4.10;3.70;;;22.70;61.50;;;;;;938040;152;27322;-79
2022/08/04 03:32:30;;;;;;;4.75;3.30;;;22.70;61.70;;;;;;938096;149;27365;-79
2022/08/04 03:35:18;;;;;;;3.25;2.98;;;22.70;62.10;;;;;;937003;150;27373;-79
2022/08/04 03:38:15;;;;;;;3.50;2.80;;;22.70;62.10;;;;;;937647;150;27369;-79
2022/08/04 03:40:54;;;;;;;6.45;3.30;;;22.70;62.10;;;;;;937746;152;27362;-79
2022/08/04 03:43:35;;;;;;;3.40;3.20;;;22.70;61.90;;;;;;937878;152;27328;-79
2022/08/04 03:46:23;;;;;;;3.70;3.35;;;22.70;62.10;;;;;;911285;152;27364;-78
2022/08/04 03:49:01;;;;;;;6.35;4.20;;;22.70;62.10;;;;;;937859;152;27333;-78
2022/08/04 03:55:01;;;;;;;4.12;3.72;;;22.70;62.40;;;;;;936611;152;27783;-80
2022/08/04 03:57:55;;;;;;;6.35;4.00;;;22.60;62.20;;;;;;936988;150;27308;-80
2022/08/04 04:00:22;;;;;;;5.00;4.33;;;22.60;62.40;;;;;;937524;152;27455;-79
2022/08/04 04:02:57;;;;;;;4.40;4.00;;;22.60;62.40;;;;;;935529;150;27338;-79
2022/08/04 04:05:36;;;;;;;4.08;3.52;;;22.60;62.90;;;;;;936941;152;27357;-79
2022/08/04 04:08:17;;;;;;;6.62;3.17;;;22.60;62.90;;;;;;936452;152;27471;-79
2022/08/04 04:11:03;;;;;;;4.90;4.50;;;22.60;63.00;;;;;;937565;152;27360;-79
2022/08/04 04:13:38;;;;;;;4.30;4.00;;;22.60;63.10;;;;;;937499;150;27366;-79
2022/08/04 04:16:23;;;;;;;4.72;4.33;;;22.60;63.10;;;;;;937404;152;27402;-79
2022/08/04 04:19:21;;;;;;;4.78;4.37;;;22.60;63.20;;;;;;937659;152;27333;-79
2022/08/04 04:22:06;;;;;;;4.80;3.92;;;22.60;63.20;;;;;;937839;152;27393;-80
2022/08/04 04:24:38;;;;;;;4.05;3.75;;;22.70;63.30;;;;;;937352;152;27348;-79
2022/08/04 04:27:26;;;;;;;3.80;3.00;;;22.70;63.50;;;;;;937790;152;27334;-79
2022/08/04 04:30:02;;;;;;;3.80;3.60;;;22.70;63.60;;;;;;937883;150;27286;-79
2022/08/04 04:32:32;;;;;;;3.80;3.50;;;22.70;63.50;;;;;;936809;149;27289;-79
2022/08/04 04:35:13;;;;;;;3.45;3.15;;;22.80;64.40;;;;;;937235;151;27693;-79
2022/08/04 04:37:45;;;;;;;5.20;3.47;;;22.80;63.70;;;;;;935377;150;27372;-79
2022/08/04 04:40:15;;;;;;;3.17;2.98;;;22.90;63.80;;;;;;936637;150;27323;-79
2022/08/04 04:43:00;;;;;;;3.67;3.10;;;22.90;63.60;;;;;;936450;152;27863;-79
2022/08/04 04:45:41;;;;;;;3.65;3.35;;;23.00;63.70;;;;;;937196;152;27361;-80
2022/08/04 04:48:17;;;;;;;3.42;3.22;;;23.00;63.60;;;;;;936504;151;27365;-80
2022/08/04 04:50:43;;;;;;;3.83;3.47;;;23.10;64.40;;;;;;937182;152;27417;-79
2022/08/04 04:53:34;;;;;;;3.52;3.22;;;23.20;63.60;;;;;;935103;150;27797;-79
2022/08/04 04:56:09;;;;;;;3.30;3.10;;;23.20;64.20;;;;;;938740;150;27303;-79
2022/08/04 04:58:36;;;;;;;3.90;3.60;;;23.30;63.60;;;;;;937829;150;27679;-79
2022/08/04 05:01:24;;;;;;;4.08;3.40;;;23.40;63.80;;;;;;937660;150;27434;-79
2022/08/04 05:04:27;;;;;;;4.97;3.30;;;23.50;63.90;;;;;;937395;150;27610;-79
2022/08/04 05:07:07;;;;;;;7.85;3.02;;;23.70;64.00;;;;;;937558;152;27440;-79
2022/08/04 05:09:44;;;;;;;5.28;3.20;;;23.90;64.00;;;;;;935309;150;28129;-79
2022/08/04 05:12:16;;;;;;;3.22;2.92;;;24.10;64.50;;;;;;937627;152;27440;-79
2022/08/04 05:14:45;;;;;;;3.00;2.80;;;24.40;64.30;;;;;;922526;152;27447;-79
2022/08/04 05:17:15;;;;;;;3.25;2.95;;;24.70;63.90;;;;;;937339;152;27386;-79
2022/08/04 05:19:50;;;;;;;2.92;2.67;;;25.10;63.20;;;;;;937162;152;27278;-80
2022/08/04 05:22:29;;;;;;;3.00;2.80;;;25.50;63.20;;;;;;937546;152;27304;-79
2022/08/04 05:25:02;;;;;;;2.70;2.50;;;26.00;63.50;;;;;;937824;152;27372;-79
2022/08/04 05:27:28;;;;;;;3.90;2.33;;;26.60;63.20;;;;;;932095;152;27342;-80
2022/08/04 05:29:55;;;;;;;3.17;2.60;;;27.20;62.20;;;;;;937021;150;28514;-80
2022/08/04 05:32:24;;;;;;;2.67;2.47;;;27.80;61.30;;;;;;937081;149;27377;-79
2022/08/04 05:34:51;;;;;;;2.75;2.05;;;28.50;60.30;;;;;;936948;152;27647;-79
2022/08/04 05:37:17;;;;;;;2.72;2.40;;;29.10;59.30;;;;;;936757;152;27338;-80
2022/08/04 05:39:50;;;;;;;3.45;2.27;;;29.80;58.20;;;;;;937442;150;27370;-80
2022/08/04 05:42:16;;;;;;;2.58;2.35;;;30.40;57.20;;;;;;936412;152;27434;-80
2022/08/04 05:44:43;;;;;;;2.25;2.05;;;30.90;56.10;;;;;;937703;150;27330;-80
2022/08/04 05:47:09;;;;;;;1.98;1.87;;;31.40;55.40;;;;;;938073;150;27291;-81
2022/08/04 05:49:36;;;;;;;2.35;2.17;;;31.80;54.70;;;;;;937238;150;27439;-80
2022/08/04 05:52:02;;;;;;;2.12;1.92;;;32.30;54.10;;;;;;937796;150;27470;-80
2022/08/04 05:54:32;;;;;;;3.67;1.72;;;32.80;53.50;;;;;;938464;152;27425;-80
2022/08/04 05:56:58;;;;;;;2.83;2.15;;;33.30;53.20;;;;;;937333;152;27307;-81
2022/08/04 05:59:25;;;;;;;2.50;2.30;;;33.80;52.60;;;;;;937602;150;27342;-80
2022/08/04 06:01:52;;;;;;;3.95;2.08;;;34.30;51.70;;;;;;938076;150;27298;-80
2022/08/04 06:04:18;;;;;;;2.45;1.72;;;34.90;51.10;;;;;;937285;150;27439;-81
2022/08/04 06:06:45;;;;;;;2.17;1.87;;;35.50;50.20;;;;;;937602;152;27343;-80
2022/08/04 06:09:11;;;;;;;2.20;2.00;;;36.00;49.50;;;;;;937598;150;26236;-79
2022/08/04 06:11:38;;;;;;;2.22;2.00;;;36.50;48.90;;;;;;937266;150;26242;-80
2022/08/04 06:14:04;;;;;;;5.28;2.37;;;37.00;48.10;;;;;;936959;152;26363;-80
2022/08/04 06:16:37;;;;;;;1.77;1.67;;;37.50;47.30;;;;;;936894;150;27868;-79
2022/08/04 06:19:04;;;;;;;2.12;1.75;;;38.00;46.50;;;;;;937733;150;27345;-79
2022/08/04 06:21:30;;;;;;;1.92;1.80;;;38.50;45.60;;;;;;936594;152;26357;-79
2022/08/04 06:23:56;;;;;;;1.85;1.75;;;38.90;44.80;;;;;;937779;152;26256;-79
2022/08/04 06:26:23;;;;;;;1.70;1.52;;;39.30;44.00;;;;;;937342;152;26284;-79
2022/08/04 06:28:50;;;;;;;1.70;1.60;;;39.60;43.50;;;;;;938307;150;26259;-79
2022/08/04 06:31:41;;;;;;;4.22;1.87;;;40.00;42.90;;;;;;936837;150;27322;-79
2022/08/04 06:33:58;;;;;;;2.00;1.80;;;40.30;42.20;;;;;;935582;152;26200;-79
2022/08/04 06:36:24;;;;;;;1.92;1.82;;;40.70;41.60;;;;;;936930;151;26206;-79
2022/08/04 06:38:51;;;;;;;1.90;1.80;;;41.00;40.80;;;;;;937756;152;26247;-79
2022/08/04 06:41:17;;;;;;;2.98;1.65;;;41.30;40.00;;;;;;936681;150;26316;-79
2022/08/04 06:43:45;;;;;;;1.70;1.60;;;41.60;39.40;;;;;;937808;152;26292;-79
2022/08/04 06:46:11;;;;;;;1.77;1.62;;;41.90;38.90;;;;;;936968;150;26683;-79
2022/08/04 06:48:37;;;;;;;1.50;1.40;;;42.20;38.40;;;;;;936626;150;26237;-79
2022/08/04 06:51:04;;;;;;;4.58;1.80;;;42.60;37.70;;;;;;937837;151;26549;-79
2022/08/04 06:53:30;;;;;;;1.50;1.40;;;43.00;37.30;;;;;;937901;150;26272;-80
2022/08/04 06:55:57;;;;;;;1.52;1.42;;;43.30;36.70;;;;;;937556;150;26261;-80
2022/08/04 06:58:23;;;;;;;1.60;1.50;;;43.70;36.00;;;;;;937472;150;26213;-80
2022/08/04 07:00:50;;;;;;;2.27;1.20;;;44.10;35.00;;;;;;937768;150;26199;-80
2022/08/04 07:03:17;;;;;;;1.32;1.20;;;44.30;34.50;;;;;;937666;151;26248;-80
2022/08/04 07:05:43;;;;;;;1.70;1.40;;;44.70;33.70;;;;;;938127;150;26383;-80
2022/08/04 07:08:10;;;;;;;1.20;1.10;;;44.80;33.10;;;;;;937599;149;26365;-80
2022/08/04 07:10:36;;;;;;;3.33;1.60;;;44.90;32.60;;;;;;943032;149;26263;-80
2022/08/04 07:13:03;;;;;;;2.30;1.45;;;45.10;32.40;;;;;;943948;149;26307;-81
2022/08/04 07:15:30;;;;;;;1.52;1.35;;;45.20;32.00;;;;;;943118;151;28042;-80
2022/08/04 07:18:02;;;;;;;1.72;1.15;;;45.40;31.80;;;;;;943828;151;26248;-80
2022/08/04 07:20:23;;;;;;;1.27;1.17;;;45.60;31.30;;;;;;942360;149;26257;-80
2022/08/04 07:22:49;;;;;;;3.17;1.15;;;45.80;31.00;;;;;;943093;149;26197;-80
2022/08/04 07:25:16;;;;;;;1.20;1.10;;;46.10;30.90;;;;;;944265;149;26923;-80
2022/08/04 07:27:43;;;;;;;1.30;1.20;;;46.30;30.30;;;;;;943799;151;26196;-80
2022/08/04 07:30:09;;;;;;;2.17;1.65;;;46.60;30.00;;;;;;944201;151;26297;-80
2022/08/04 07:32:36;;;;;;;1.40;1.30;;;46.90;29.80;;;;;;943890;149;26263;-80
2022/08/04 07:35:02;;;;;;;3.00;1.40;;;47.20;29.50;;;;;;943339;149;26254;-80
2022/08/04 07:37:29;;;;;;;1.60;1.37;;;47.50;28.90;;;;;;943053;151;26236;-80
2022/08/04 07:39:55;;;;;;;3.60;1.35;;;47.70;28.60;;;;;;943011;151;26256;-80
2022/08/04 07:42:22;;;;;;;1.35;1.25;;;47.80;28.80;;;;;;943545;149;26591;-80
2022/08/04 07:44:49;;;;;;;1.20;1.10;;;48.00;28.10;;;;;;944160;151;26258;-80
2022/08/04 07:47:15;;;;;;;1.20;1.07;;;48.20;28.00;;;;;;943519;150;26283;-80
2022/08/04 07:49:42;;;;;;;2.87;1.10;;;48.40;27.70;;;;;;943729;149;26332;-81
2022/08/04 07:52:08;;;;;;;1.30;1.20;;;48.50;27.40;;;;;;943864;151;26264;-81
2022/08/04 07:54:35;;;;;;;1.20;1.02;;;48.70;27.20;;;;;;943973;151;26289;-81
2022/08/04 07:57:02;;;;;;;1.25;1.15;;;48.70;26.90;;;;;;943786;151;26336;-81
2022/08/04 07:59:28;;;;;;;1.07;1.07;;;48.90;27.10;;;;;;943029;149;26263;-80
2022/08/04 08:01:55;;;;;;;1.55;0.98;;;49.10;26.80;;;;;;944237;151;26242;-81
2022/08/04 08:04:21;;;;;;;2.10;1.00;;;49.20;26.50;;;;;;942707;151;26539;-81
2022/08/04 08:06:48;;;;;;;1.20;1.10;;;49.40;26.30;;;;;;944134;151;26234;-81
2022/08/04 08:09:15;;;;;;;1.25;1.15;;;49.50;26.20;;;;;;943162;151;26714;-81
2022/08/04 08:11:41;;;;;;;4.42;1.17;;;49.70;26.20;;;;;;943452;149;26271;-81
2022/08/04 08:14:08;;;;;;;1.32;1.00;;;49.90;26.00;;;;;;943501;149;26272;-81
2022/08/04 08:16:37;;;;;;;1.20;1.00;;;50.20;25.80;;;;;;944107;151;26209;-81
2022/08/04 08:19:04;;;;;;;0.82;0.82;;;50.40;25.50;;;;;;943539;149;26282;-81
2022/08/04 08:21:30;;;;;;;2.42;1.10;;;50.60;25.30;;;;;;943126;150;26306;-81
2022/08/04 08:23:57;;;;;;;1.98;0.90;;;50.80;25.30;;;;;;943870;151;26725;-81
2022/08/04 08:26:23;;;;;;;6.12;1.17;;;51.00;25.00;;;;;;943386;151;26320;-80
2022/08/04 08:28:50;;;;;;;1.57;0.90;;;51.20;24.90;;;;;;943511;151;26233;-81
2022/08/04 08:31:16;;;;;;;0.53;0.53;;;51.40;24.70;;;;;;943362;150;26169;-81
2022/08/04 08:33:43;;;;;;;1.25;1.00;;;51.60;24.40;;;;;;942874;149;26331;-81
2022/08/04 08:36:12;;;;;;;1.00;1.00;;;51.80;24.30;;;;;;943811;151;26324;-81
2022/08/04 08:38:54;;;;;;;0.90;0.90;;;51.90;24.00;;;;;;940689;149;26215;-81
2022/08/04 08:41:45;;;;;;;1.00;1.00;;;52.00;23.80;;;;;;942377;149;26321;-81
2022/08/04 08:44:23;;;;;;;0.90;0.85;;;52.10;23.20;;;;;;942574;149;26962;-81
2022/08/04 08:46:53;;;;;;;0.80;0.80;;;52.20;23.80;;;;;;942847;149;26309;-81
2022/08/04 08:49:47;;;;;;;0.80;0.80;;;52.50;23.80;;;;;;942334;151;26701;-81
2022/08/04 08:52:34;;;;;;;0.82;0.75;;;52.70;23.40;;;;;;943408;149;26371;-81
2022/08/04 08:55:16;;;;;;;0.85;0.82;;;52.90;23.30;;;;;;943692;151;26156;-81
2022/08/04 08:57:42;;;;;;;0.93;0.93;;;53.20;23.10;;;;;;942468;151;26341;-79
2022/08/04 09:00:09;;;;;;;1.05;0.88;;;53.40;23.00;;;;;;941025;151;26250;-79
2022/08/04 09:02:57;;;;;;;1.87;0.72;;;53.70;22.80;;;;;;942238;149;26251;-79
2022/08/04 09:05:36;;;;;;;0.90;0.90;;;53.90;22.70;;;;;;943777;151;26223;-79
2022/08/04 09:08:33;;;;;;;1.12;0.80;;;54.20;22.70;;;;;;943798;149;26275;-79
2022/08/04 09:11:00;;;;;;;0.70;0.70;;;54.30;22.40;;;;;;939914;150;26304;-79
2022/08/04 09:13:26;;;;;;;1.90;1.07;;;54.60;22.30;;;;;;934740;152;26245;-79
2022/08/04 09:15:59;;;;;;;1.77;0.88;;;54.80;21.90;;;;;;936619;152;26249;-80
2022/08/04 09:18:43;;;;;;;0.88;0.80;;;55.00;21.90;;;;;;936295;152;26248;-79
2022/08/04 09:21:29;;;;;;;0.68;0.68;;;55.10;21.60;;;;;;935460;152;26235;-79
2022/08/04 09:23:58;;;;;;;1.07;1.00;;;55.20;21.40;;;;;;937720;152;26269;-79
2022/08/04 09:26:27;;;;;;;0.70;0.68;;;55.30;21.40;;;;;;937131;151;26305;-79
2022/08/04 09:29:08;;;;;;;0.90;0.90;;;55.40;21.30;;;;;;936111;152;26308;-79
2022/08/04 09:31:37;;;;;;;0.68;0.68;;;55.40;21.20;;;;;;937436;150;26244;-79
2022/08/04 09:34:10;;;;;;;1.22;1.02;;;55.50;21.10;;;;;;937496;152;26337;-80
2022/08/04 09:36:42;;;;;;;0.98;0.95;;;55.60;21.00;;;;;;936482;150;26804;-80
2022/08/04 09:39:09;;;;;;;3.95;1.05;;;55.70;20.90;;;;;;937324;150;26145;-81
2022/08/04 09:41:50;;;;;;;1.55;0.75;;;55.70;20.70;;;;;;935184;150;26263;-81
2022/08/04 09:44:23;;;;;;;0.70;0.70;;;55.70;20.60;;;;;;937058;150;26273;-79
2022/08/04 09:46:58;;;;;;;0.78;0.78;;;55.70;20.60;;;;;;937021;152;26239;-79
2022/08/04 09:49:46;;;;;;;0.85;0.85;;;55.50;20.50;;;;;;935961;150;26191;-80
2022/08/04 09:52:25;;;;;;;1.67;0.93;;;55.30;20.50;;;;;;936335;152;26246;-80
2022/08/04 09:54:51;;;;;;;0.70;0.70;;;55.10;20.60;;;;;;937977;151;26250;-80
2022/08/04 09:57:21;;;;;;;0.90;0.90;;;54.80;20.70;;;;;;936990;152;26239;-80
2022/08/04 09:59:47;;;;;;;1.00;1.00;;;54.50;20.70;;;;;;936293;150;28858;-81
2022/08/04 10:02:14;;;;;;;0.90;0.90;;;54.20;20.50;;;;;;937542;151;26239;-81
2022/08/04 10:04:41;;;;;;;1.45;1.05;;;54.00;20.60;;;;;;937741;150;27072;-81
2022/08/04 10:07:44;;;;;;;0.82;0.82;;;53.60;20.70;;;;;;937321;150;26168;-81
2022/08/04 10:10:26;;;;;;;0.93;0.93;;;53.20;20.80;;;;;;937304;150;26299;-81
2022/08/04 10:12:59;;;;;;;1.00;1.00;;;52.80;20.80;;;;;;946289;149;26260;-81
2022/08/04 10:15:31;;;;;;;0.75;0.75;;;52.40;20.90;;;;;;947159;149;26729;-81
2022/08/04 10:18:03;;;;;;;1.00;1.00;;;52.00;21.00;;;;;;946361;149;26217;-80
2022/08/04 10:20:42;;;;;;;1.57;1.10;;;51.60;21.10;;;;;;945049;149;26393;-81
2022/08/04 10:23:17;;;;;;;2.47;1.25;;;51.10;21.30;;;;;;947170;149;26341;-81
2022/08/04 10:26:02;;;;;;;1.50;1.30;;;50.70;21.40;;;;;;947381;149;26267;-81
2022/08/04 10:28:28;;;;;;;1.52;1.27;;;50.30;21.60;;;;;;947509;149;26252;-81
2022/08/04 10:30:55;;;;;;;1.20;1.10;;;49.80;21.60;;;;;;947699;149;26213;-80
2022/08/04 10:33:21;;;;;;;1.07;1.05;;;49.40;21.80;;;;;;946341;149;26197;-81
2022/08/04 10:35:48;;;;;;;1.07;0.98;;;49.00;21.90;;;;;;947484;149;26263;-81
2022/08/04 10:38:29;;;;;;;1.40;1.30;;;48.60;22.00;;;;;;946924;149;26269;-81
2022/08/04 10:40:56;;;;;;;1.32;1.22;;;48.20;22.20;;;;;;947885;147;26252;-81
2022/08/04 10:43:34;;;;;;;1.22;1.10;;;47.70;22.40;;;;;;948617;149;26866;-81
2022/08/04 10:46:07;;;;;;;1.00;1.00;;;47.30;22.60;;;;;;948410;148;27885;-81
2022/08/04 10:48:42;;;;;;;2.62;1.27;;;46.90;22.70;;;;;;947296;149;26669;-81
2022/08/04 10:51:11;;;;;;;1.20;1.20;;;46.50;22.90;;;;;;948739;149;26284;-81
2022/08/04 10:53:38;;;;;;;1.57;1.07;;;46.20;23.20;;;;;;947170;149;26241;-81
2022/08/04 10:56:23;;;;;;;1.15;1.15;;;45.90;23.20;;;;;;948615;149;26298;-80
2022/08/04 10:58:49;;;;;;;2.33;1.35;;;45.60;23.60;;;;;;948909;149;26236;-80
2022/08/04 11:01:22;;;;;;;1.05;1.05;;;45.30;23.70;;;;;;948633;149;26380;-81
2022/08/04 11:03:51;;;;;;;2.00;1.40;;;45.00;23.90;;;;;;947845;149;26684;-81
2022/08/04 11:06:17;;;;;;;2.40;1.40;;;44.80;24.00;;;;;;947851;149;26190;-81
2022/08/04 11:08:46;;;;;;;4.42;1.30;;;44.50;24.10;;;;;;947569;149;26254;-81
2022/08/04 11:11:16;;;;;;;2.65;1.40;;;44.30;24.30;;;;;;945180;149;26339;-80
2022/08/04 11:14:07;;;;;;;1.40;1.30;;;44.10;24.40;;;;;;937405;152;26176;-80
2022/08/04 11:17:01;;;;;;;1.40;1.30;;;44.00;24.60;;;;;;937808;150;26617;-80
2022/08/04 11:19:34;;;;;;;1.40;1.30;;;43.80;24.80;;;;;;937234;152;26224;-80
2022/08/04 11:22:00;;;;;;;1.50;1.40;;;43.60;24.80;;;;;;937044;151;26230;-80
2022/08/04 11:24:26;;;;;;;1.12;1.12;;;43.50;24.90;;;;;;935222;152;27340;-80
2022/08/04 11:26:56;;;;;;;1.45;1.35;;;43.30;25.00;;;;;;936867;150;26241;-80
2022/08/04 11:29:32;;;;;;;1.47;1.42;;;43.10;24.90;;;;;;936904;152;26208;-80
2022/08/04 11:31:58;;;;;;;1.40;1.30;;;43.00;25.00;;;;;;911417;152;26222;-80
2022/08/04 11:34:25;;;;;;;1.40;1.30;;;42.80;25.30;;;;;;937381;150;27289;-81
2022/08/04 11:37:00;;;;;;;2.80;1.40;;;42.70;25.40;;;;;;937257;152;26324;-81
2022/08/04 11:39:36;;;;;;;1.30;1.20;;;42.60;25.30;;;;;;936904;150;26238;-81
2022/08/04 11:42:04;;;;;;;1.30;1.07;;;42.50;25.40;;;;;;936337;152;26249;-80
2022/08/04 11:44:31;;;;;;;1.40;1.20;;;42.50;25.60;;;;;;936475;150;27960;-80
2022/08/04 11:47:00;;;;;;;2.17;1.20;;;42.30;25.60;;;;;;936405;151;27351;-80
2022/08/04 11:49:45;;;;;;;1.15;1.12;;;42.30;25.70;;;;;;937157;150;26337;-80
2022/08/04 11:52:11;;;;;;;1.30;1.30;;;42.20;25.80;;;;;;937527;150;27306;-81
2022/08/04 11:54:38;;;;;;;1.22;1.22;;;42.20;25.70;;;;;;937487;150;26614;-80
2022/08/04 11:57:04;;;;;;;1.42;1.32;;;42.10;25.80;;;;;;936774;150;26366;-80
2022/08/04 11:59:31;;;;;;;1.30;1.30;;;42.10;25.80;;;;;;937653;150;26284;-80
2022/08/04 12:02:10;;;;;;;1.55;1.45;;;42.10;25.90;;;;;;938065;150;27415;-81
2022/08/04 12:04:57;;;;;;;1.45;1.40;;;42.00;25.80;;;;;;937561;150;26308;-81
2022/08/04 12:07:51;;;;;;;1.42;1.32;;;42.00;25.80;;;;;;936434;152;27250;-81
2022/08/04 12:10:31;;;;;;;1.37;1.10;;;42.00;25.80;;;;;;936021;150;26621;-81
2022/08/04 12:13:03;;;;;;;1.55;1.40;;;41.90;25.90;;;;;;937044;152;27410;-80
2022/08/04 12:15:29;;;;;;;1.50;1.40;;;42.00;26.10;;;;;;936859;150;26366;-80
2022/08/04 12:18:02;;;;;;;1.95;1.75;;;41.90;26.20;;;;;;936955;152;27334;-80
2022/08/04 12:20:28;;;;;;;1.37;1.30;;;41.90;26.20;;;;;;936358;152;26232;-80
2022/08/04 12:22:55;;;;;;;1.22;1.15;;;41.80;26.30;;;;;;937266;152;26281;-80
2022/08/04 12:25:28;;;;;;;1.02;1.02;;;41.80;26.20;;;;;;937655;152;27352;-80
2022/08/04 12:28:00;;;;;;;1.35;1.12;;;41.70;25.90;;;;;;935833;150;26272;-80
2022/08/04 12:30:26;;;;;;;1.25;1.15;;;41.80;26.00;;;;;;937735;150;26247;-80
2022/08/04 12:32:53;;;;;;;1.45;1.35;;;41.70;26.00;;;;;;936500;152;26322;-80
2022/08/04 12:35:38;;;;;;;1.70;1.22;;;41.70;26.00;;;;;;936726;150;26233;-80
2022/08/04 12:38:07;;;;;;;1.02;1.00;;;41.60;26.00;;;;;;937498;150;28278;-80
2022/08/04 12:40:45;;;;;;;3.02;1.30;;;41.60;26.40;;;;;;937230;152;26226;-80
2022/08/04 12:43:24;;;;;;;0.88;0.88;;;41.60;25.80;;;;;;937758;150;27303;-79
2022/08/04 12:45:50;;;;;;;1.55;0.95;;;41.60;25.90;;;;;;937480;152;26211;-80
2022/08/04 12:48:17;;;;;;;1.10;1.10;;;41.60;25.90;;;;;;937021;150;26225;-80
2022/08/04 12:50:49;;;;;;;0.95;0.95;;;41.60;25.90;;;;;;937912;150;26265;-80
2022/08/04 12:53:16;;;;;;;1.15;1.00;;;41.70;25.80;;;;;;938092;152;26563;-80
2022/08/04 12:55:45;;;;;;;0.95;0.90;;;41.70;25.60;;;;;;937042;151;26327;-80
2022/08/04 12:58:15;;;;;;;0.93;0.93;;;41.70;25.50;;;;;;937372;150;26262;-80
2022/08/04 13:00:41;;;;;;;0.75;0.75;;;41.70;25.90;;;;;;937394;150;26370;-80
2022/08/04 13:03:08;;;;;;;0.93;0.93;;;41.70;25.30;;;;;;937171;150;26235;-80
2022/08/04 13:05:35;;;;;;;1.52;1.20;;;41.60;25.00;;;;;;936862;152;26353;-81
2022/08/04 13:08:01;;;;;;;1.12;1.10;;;41.60;25.10;;;;;;937109;150;26246;-80
2022/08/04 13:10:28;;;;;;;1.98;1.17;;;41.50;25.10;;;;;;937941;152;27314;-81
2022/08/04 13:12:57;;;;;;;3.40;1.00;;;41.50;25.10;;;;;;939619;150;26594;-80
2022/08/04 13:15:24;;;;;;;0.80;0.80;;;41.40;25.20;;;;;;942983;149;27433;-80
2022/08/04 13:17:50;;;;;;;0.93;0.93;;;41.40;25.20;;;;;;942588;149;26274;-80